Data for 01/20/2018

Time Sea-Level Adjusted Pressure Absolute Pressure Temperature Relative Humidity Dew Point   
(mb) (inHg) (mb) (inHg) (C) (F) (%) (C) (F)
00:05 1014 29.94 843 24.89 -4.6 23.8 74 -8.5 16.7
00:10 1014 29.94 843 24.89 -4.7 23.6 75 -8.4 16.8
00:15 1014 29.94 843 24.89 -4.8 23.3 77 -8.3 17
00:20 1014 29.94 843 24.89 -5.3 22.5 78 -8.5 16.6
00:25 1014 29.94 843 24.89 -5.9 21.4 79 -8.9 15.9
00:30 1014 29.94 843 24.89 -6.4 20.6 79 -9.4 15.1
00:35 1014 29.94 843 24.89 -6.3 20.7 78 -9.5 14.9
00:40 1014 29.94 843 24.89 -6.3 20.7 75 -10 14
00:45 1014 29.94 843 24.89 -5.8 21.6 73 -9.9 14.2
00:50 1014 29.94 843 24.89 -5.2 22.7 70 -9.9 14.3
00:55 1014 29.94 843 24.89 -4.7 23.6 68 -9.7 14.6
01:00 1014 29.94 843 24.89 -4.5 24 67 -9.7 14.5
01:05 1014 29.94 843 24.89 -4.5 23.9 69 -9.4 15
01:10 1014 29.94 843 24.89 -4.9 23.1 73 -9.1 15.5
01:15 1014 29.94 843 24.89 -5.5 22.1 75 -9.2 15.5
01:20 1014 29.94 843 24.89 -6.3 20.7 77 -9.6 14.7
01:25 1014 29.94 843 24.89 -6.7 20 78 -9.9 14.2
01:30 1014 29.94 843 24.89 -6.6 20.2 77 -9.9 14.1
01:35 1014 29.94 843 24.89 -6.2 20.9 73 -10.2 13.6
01:40 1014 29.94 843 24.89 -5.6 22 71 -10.1 13.8
01:45 1014 29.94 843 24.89 -5.4 22.2 71 -9.9 14.1
01:50 1014 29.94 843 24.89 -6.1 21.1 75 -9.8 14.4
01:55 1014 29.94 843 24.89 -6.5 20.4 73 -10.5 13.1
02:00 1014 29.94 844 24.92 -6.1 20.9 72 -10.4 13.3
02:05 1014 29.94 844 24.92 -6.2 20.8 72 -10.5 13.2
02:10 1015 29.97 844 24.92 -6.5 20.3 73 -10.5 13
02:15 1015 29.97 844 24.92 -6.5 20.3 72 -10.7 12.7
02:20 1015 29.97 844 24.92 -6.5 20.4 72 -10.7 12.7
02:25 1014 29.94 844 24.92 -6.6 20.2 73 -10.7 12.8
02:30 1015 29.97 844 24.92 -6.5 20.4 73 -10.5 13.1
02:35 1015 29.97 844 24.92 -6.4 20.4 73 -10.6 13
02:40 1015 29.97 844 24.92 -6.4 20.5 73 -10.4 13.3
02:45 1015 29.97 844 24.92 -6.2 20.9 72 -10.4 13.3
02:50 1015 29.97 844 24.92 -6.3 20.7 73 -10.4 13.3
02:55 1015 29.97 844 24.92 -6.2 20.8 73 -10.3 13.5
03:00 1015 29.97 844 24.92 -6 21.1 72 -10.3 13.4
03:05 1015 29.97 844 24.92 -5.7 21.7 74 -9.6 14.8
03:10 1015 29.97 844 24.92 -5.8 21.6 74 -9.6 14.6
03:15 1015 29.97 844 24.92 -5.7 21.8 73 -9.8 14.4
03:20 1015 29.97 844 24.92 -5.4 22.3 74 -9.3 15.3
03:25 1015 29.97 844 24.92 -5.5 22.1 75 -9.3 15.3
03:30 1015 29.97 844 24.92 -5.5 22.2 74 -9.4 15.1
03:35 1015 29.97 844 24.92 -5.6 22 74 -9.5 14.9
03:40 1015 29.97 844 24.92 -5.7 21.8 73 -9.7 14.5
03:45 1015 29.97 844 24.92 -5.6 21.8 73 -9.7 14.5
03:50 1015 29.97 844 24.92 -5.6 21.9 73 -9.7 14.5
03:55 1015 29.97 844 24.92 -5.4 22.3 72 -9.7 14.5
04:00 1015 29.97 844 24.92 -5.4 22.3 72 -9.7 14.6
04:05 1015 29.97 844 24.92 -5.4 22.3 72 -9.7 14.6
04:10 1015 29.97 844 24.92 -5.7 21.8 73 -9.9 14.2
04:15 1015 29.97 844 24.92 -5.4 22.2 72 -9.8 14.4
04:20 1015 29.97 844 24.92 -5.9 21.3 76 -9.6 14.8
04:25 1015 29.97 844 24.92 -6.3 20.6 77 -9.8 14.4
04:30 1015 29.97 844 24.92 -6.5 20.4 78 -9.6 14.6
04:35 1015 29.97 844 24.92 -6.4 20.5 78 -9.7 14.6
04:40 1015 29.97 844 24.92 -6.3 20.6 76 -9.9 14.1
04:45 1015 29.97 844 24.92 -6.2 20.9 75 -10 14
04:50 1015 29.97 844 24.92 -6.2 20.8 74 -10 13.9
04:55 1015 29.97 844 24.92 -6 21.1 72 -10.3 13.4
05:00 1015 29.97 844 24.92 -6 21.2 72 -10.2 13.6
05:05 1015 29.97 844 24.92 -6.1 21.1 72 -10.4 13.3
05:10 1015 29.97 844 24.92 -6.1 21 73 -10.2 13.6
05:15 1015 29.97 844 24.92 -5.5 22.1 70 -10.1 13.8
05:20 1015 29.97 844 24.92 -5.6 21.9 71 -10 13.9
05:25 1015 29.97 844 24.92 -6.2 20.8 75 -10 14.1
05:30 1015 29.97 844 24.92 -6.6 20.2 78 -9.8 14.4
05:35 1015 29.97 844 24.92 -6.8 19.7 78 -10.1 13.9
05:40 1015 29.97 844 24.92 -7 19.4 79 -10.1 13.8
05:45 1015 29.97 844 24.92 -6.9 19.5 77 -10.3 13.5
05:50 1015 29.97 844 24.92 -7.1 19.3 80 -10 14
05:55 1015 29.97 844 24.92 -6.9 19.5 79 -10 14.1
06:00 1015 29.97 844 24.92 -6.8 19.7 76 -10.3 13.5
06:05 1015 29.97 845 24.95 -7 19.4 78 -10.2 13.6
06:10 1015 29.97 845 24.95 -7.4 18.8 80 -10.3 13.5
06:15 1015 29.97 845 24.95 -7.5 18.6 80 -10.3 13.4
06:20 1015 29.97 845 24.95 -7.9 17.8 81 -10.5 13.1
06:25 1015 29.97 845 24.95 -8.1 17.3 83 -10.6 12.9
06:30 1016 30 845 24.95 -7.9 17.8 82 -10.5 13.1
06:35 1016 30 845 24.95 -7.8 18 81 -10.4 13.2
06:40 1016 30 845 24.95 -7.6 18.3 81 -10.4 13.3
06:45 1016 30 845 24.95 -7.6 18.3 80 -10.4 13.2
06:50 1016 30 845 24.95 -7.7 18.2 79 -10.7 12.8
06:55 1016 30 845 24.95 -8.1 17.4 83 -10.6 13
07:00 1016 30 845 24.95 -8.1 17.5 82 -10.6 12.9
07:05 1016 30 845 24.95 -8 17.7 82 -10.5 13.1
07:10 1016 30 845 24.95 -8 17.7 81 -10.6 12.9
07:15 1016 30 845 24.95 -8.3 17.1 81 -11 12.2
07:20 1016 30 845 24.95 -8.7 16.3 83 -11.1 12
07:25 1016 30 845 24.95 -8.7 16.3 83 -11.1 12
07:30 1016 30 845 24.95 -8.5 16.8 83 -10.8 12.5
07:35 1016 30 845 24.95 -8.2 17.2 82 -10.8 12.5
07:40 1016 30 845 24.95 -8.3 17.1 82 -10.8 12.6
07:45 1016 30 845 24.95 -8 17.6 82 -10.6 12.8
07:50 1016 30 845 24.95 -8.1 17.4 80 -11 12.3
07:55 1016 30 845 24.95 -8.6 16.5 83 -10.9 12.3
08:00 1016 30 845 24.95 -8.4 16.9 82 -10.9 12.4
08:05 1016 30 845 24.95 -8.1 17.3 82 -10.7 12.8
08:10 1016 30 845 24.95 -7.9 17.7 81 -10.7 12.8
08:15 1016 30 845 24.95 -7.7 18.1 81 -10.4 13.2
08:20 1016 30 845 24.95 -7.6 18.4 81 -10.3 13.4
08:25 1016 30 845 24.95 -7.5 18.5 80 -10.4 13.2
08:30 1016 30 845 24.95 -7.5 18.5 79 -10.5 13.2
08:35 1016 30 845 24.95 -7.2 19 78 -10.4 13.2
08:40 1016 30 845 24.95 -7.1 19.3 77 -10.4 13.3
08:45 1016 30 845 24.95 -6.9 19.5 76 -10.5 13
08:50 1016 30 845 24.95 -7 19.5 72 -11.1 12
08:55 1016 30 845 24.95 -6.8 19.7 74 -10.7 12.7
09:00 1016 30 845 24.95 -6.8 19.7 77 -10.3 13.5
09:05 1016 30 845 24.95 -6.7 19.9 76 -10.3 13.5
09:10 1016 30 845 24.95 -6.4 20.5 72 -10.7 12.8
09:15 1016 30 845 24.95 -6.2 20.8 69 -11.1 12
09:20 1016 30 845 24.95 -5.9 21.4 66 -11.3 11.7
09:25 1016 30 845 24.95 -5.6 22 64 -11.3 11.6
09:30 1016 30 845 24.95 -5.2 22.7 62 -11.4 11.5
09:35 1016 30 845 24.95 -4.7 23.6 60 -11.2 11.8
09:40 1016 30 845 24.95 -4.4 24.2 65 -9.9 14.1
09:45 1016 30 845 24.95 -5.3 22.5 69 -10 14
09:50 1016 30 845 24.95 -5.2 22.7 69 -10.1 13.9
09:55 1016 30 845 24.95 -6.3 20.6 74 -10.2 13.6
10:00 1016 30 845 24.95 -5.7 21.7 73 -9.8 14.3
10:05 1016 30 845 24.95 -5.3 22.5 73 -9.5 14.9
10:10 1016 30 845 24.95 -4.3 24.3 63 -10.4 13.3
10:15 1016 30 845 24.95 -3 26.5 58 -10.2 13.6
10:20 1016 30 845 24.95 -2.4 27.7 57 -9.7 14.5
10:25 1016 30 845 24.95 -1.7 28.9 52 -10.3 13.4
10:30 1016 30 845 24.95 -1.7 28.9 49 -11 12.1
10:35 1016 30 845 24.95 -1.9 28.6 52 -10.5 13.1
10:40 1016 30 845 24.95 -1.6 29.1 50 -10.7 12.8
10:45 1016 30 845 24.95 -1.5 29.4 48 -11.1 11.9
10:50 1016 30 845 24.95 -2 28.4 53 -10.4 13.2
10:55 1016 30 845 24.95 -2.1 28.1 53 -10.4 13.3
11:00 1016 30 845 24.95 -2 28.4 53 -10.4 13.3
11:05 1016 30 845 24.95 -2.2 28 53 -10.6 13
11:10 1016 30 845 24.95 -2.2 28.1 51 -11.1 12.1
11:15 1016 30 845 24.95 -2.1 28.3 53 -10.5 13.2
11:20 1016 30 845 24.95 -2 28.4 54 -10.1 13.7
11:25 1016 30 845 24.95 -2.2 28 53 -10.5 13.2
11:30 1016 30 845 24.95 -2.4 27.7 55 -10.3 13.4
11:35 1016 30 845 24.95 -2.2 28.1 57 -9.6 14.8
11:40 1016 30 845 24.95 -1.2 29.8 56 -9 15.9
11:45 1016 30 845 24.95 -1 30.1 57 -8.5 16.7
11:50 1016 30 845 24.95 -0.7 30.8 49 -10 13.9
11:55 1016 30 845 24.95 -0.2 31.7 56 -7.9 17.8
12:00 1016 30 845 24.95 -0.6 30.8 63 -6.9 19.6
12:05 1016 30 845 24.95 -1.4 29.5 64 -7.4 18.7
12:10 1016 30 845 24.95 -1.6 29.1 64 -7.5 18.5
12:15 1016 30 845 24.95 -1.4 29.4 63 -7.6 18.4
12:20 1016 30 845 24.95 -1.3 29.6 61 -7.9 17.8
12:25 1016 30 845 24.95 -1.9 28.6 63 -8 17.6
12:30 1016 30 845 24.95 -2.3 27.9 62 -8.6 16.6
12:35 1016 30 845 24.95 -2.3 27.9 63 -8.4 16.9
12:40 1016 30 845 24.95 -1.6 29.1 59 -8.6 16.5
12:45 1016 30 845 24.95 -1.2 29.9 55 -9 15.7
12:50 1016 30 845 24.95 -0.5 31.1 54 -8.7 16.3
12:55 1016 30 845 24.95 0.4 32.7 49 -9.2 15.4
13:00 1016 30 845 24.95 0.6 33.2 50 -8.6 16.5
13:05 1016 30 845 24.95 0.6 33.2 49 -8.8 16.2
13:10 1016 30 845 24.95 0.2 32.4 51 -8.7 16.3
13:15 1016 30 845 24.95 -0.1 31.7 53 -8.6 16.5
13:20 1016 30 845 24.95 0.3 32.6 50 -9 15.8
13:25 1016 30 845 24.95 0.4 32.6 51 -8.7 16.3
13:30 1015 29.97 845 24.95 0.4 32.7 47 -9.6 14.7
13:35 1015 29.97 845 24.95 0.5 32.8 48 -9.4 15.1
13:40 1015 29.97 845 24.95 0.7 33.2 46 -9.7 14.6
13:45 1015 29.97 845 24.95 0.7 33.3 48 -9 15.7
13:50 1015 29.97 845 24.95 0.3 32.6 51 -8.6 16.4
13:55 1016 30 845 24.95 0.3 32.5 51 -8.6 16.5
14:00 1015 29.97 845 24.95 0.9 33.7 49 -8.6 16.5
14:05 1015 29.97 845 24.95 0.9 33.6 47 -9.1 15.6
14:10 1015 29.97 845 24.95 0.9 33.6 49 -8.6 16.5
14:15 1015 29.97 845 24.95 0.5 33 51 -8.6 16.6
14:20 1015 29.97 845 24.95 0.6 33.1 49 -9 15.8
14:25 1015 29.97 845 24.95 0.7 33.3 46 -9.5 14.8
14:30 1015 29.97 845 24.95 0.4 32.8 47 -9.6 14.8
14:35 1015 29.97 845 24.95 0.3 32.5 49 -9.3 15.3
14:40 1015 29.97 845 24.95 0.4 32.7 48 -9.4 15.1
14:45 1015 29.97 845 24.95 0.3 32.6 51 -8.6 16.6
14:50 1015 29.97 845 24.95 0.4 32.8 48 -9.4 15
14:55 1015 29.97 845 24.95 0.7 33.3 44 -10.1 13.9
15:00 1015 29.97 844 24.92 0.7 33.3 47 -9.4 15.1
15:05 1015 29.97 845 24.95 0.5 33 46 -9.9 14.2
15:10 1015 29.97 845 24.95 0.2 32.4 51 -8.9 16
15:15 1015 29.97 845 24.95 -0.6 31 54 -8.9 16
15:20 1016 30 845 24.95 -1 30.2 55 -8.9 16
15:25 1016 30 845 24.95 -0.8 30.6 54 -9 15.8
15:30 1016 30 845 24.95 -1.3 29.7 56 -9 15.7
15:35 1016 30 845 24.95 -1.2 29.8 55 -9.1 15.6
15:40 1016 30 845 24.95 -1.1 30 57 -8.7 16.4
15:45 1016 30 845 24.95 -1.9 28.6 58 -9 15.7
15:50 1016 30 845 24.95 -2.1 28.1 61 -8.6 16.5
15:55 1016 30 845 24.95 -1.6 29.1 54 -9.7 14.5
16:00 1016 30 845 24.95 -1.5 29.3 58 -8.6 16.5
16:05 1016 30 845 24.95 -1.6 29.1 62 -8 17.6
16:10 1016 30 845 24.95 -1.6 29.2 56 -9.3 15.3
16:15 1016 30 845 24.95 -1.4 29.5 50 -10.6 12.8
16:20 1016 30 845 24.95 -1.3 29.6 51 -10.2 13.7
16:25 1016 30 845 24.95 -1.3 29.7 49 -10.8 12.5
16:30 1016 30 845 24.95 -1.5 29.3 57 -8.9 15.9
16:35 1016 30 845 24.95 -1.5 29.3 51 -10.3 13.5
16:40 1016 30 845 24.95 -1.6 29.1 63 -7.8 18
16:45 1016 30 845 24.95 -1.8 28.7 51 -10.6 12.9
16:50 1016 30 845 24.95 -1.8 28.8 49 -11.2 11.8
16:55 1016 30 845 24.95 -1.8 28.8 52 -10.4 13.2
17:00 1016 30 845 24.95 -1.9 28.6 53 -10.4 13.4
17:05 1016 30 845 24.95 -1.9 28.5 52 -10.5 13
17:10 1016 30 845 24.95 -2.1 28.3 53 -10.5 13.1
17:15 1016 30 845 24.95 -2.1 28.3 55 -10 13.9
17:20 1016 30 845 24.95 -2.1 28.3 57 -9.6 14.7
17:25 1016 30 845 24.95 -2.1 28.3 55 -9.8 14.3
17:30 1016 30 845 24.95 -2.1 28.3 59 -9.1 15.6
17:35 1016 30 845 24.95 -2 28.4 61 -8.5 16.7
17:40 1016 30 846 24.98 -2 28.4 66 -7.5 18.5
17:45 1016 30 846 24.98 -2.2 28.1 66 -7.7 18.1
17:50 1016 30 846 24.98 -2.3 27.9 66 -7.8 18
17:55 1016 30 846 24.98 -2.2 28 63 -8.4 16.9
18:00 1017 30.03 846 24.98 -2.2 28 59 -9.1 15.6
18:05 1017 30.03 846 24.98 -2.4 27.7 61 -8.8 16.1
18:10 1017 30.03 846 24.98 -2.4 27.6 64 -8.3 17
18:15 1017 30.03 846 24.98 -2.4 27.7 63 -8.4 16.9
18:20 1017 30.03 846 24.98 -2.4 27.7 68 -7.6 18.3
18:25 1017 30.03 846 24.98 -2.6 27.3 64 -8.4 16.8
18:30 1017 30.03 846 24.98 -2.6 27.4 65 -8.2 17.2
18:35 1017 30.03 846 24.98 -2.5 27.6 64 -8.4 16.9
18:40 1017 30.03 846 24.98 -2.4 27.7 62 -8.7 16.4
18:45 1017 30.03 846 24.98 -2.6 27.4 60 -9.2 15.4
18:50 1017 30.03 846 24.98 -2.5 27.5 61 -9 15.8
18:55 1017 30.03 846 24.98 -2.4 27.7 61 -9 15.9
19:00 1017 30.03 846 24.98 -2.3 27.9 58 -9.5 15
19:05 1017 30.03 846 24.98 -2.3 27.9 58 -9.5 14.9
19:10 1017 30.03 846 24.98 -2.2 28 58 -9.4 15.2
19:15 1017 30.03 846 24.98 -2.2 28.1 62 -8.6 16.5
19:20 1017 30.03 846 24.98 -2.3 27.9 68 -7.5 18.5
19:25 1017 30.03 846 24.98 -2.8 26.9 72 -7.2 19
19:30 1017 30.03 846 24.98 -3.3 26 72 -7.7 18.1
19:35 1017 30.03 846 24.98 -3.4 25.9 70 -8.2 17.3
19:40 1017 30.03 846 24.98 -3.6 25.5 73 -7.7 18.1
19:45 1017 30.03 846 24.98 -3.8 25.2 72 -8.1 17.5
19:50 1017 30.03 846 24.98 -3.8 25.2 71 -8.3 17.1
19:55 1017 30.03 846 24.98 -3.6 25.5 66 -9 15.8
20:00 1017 30.03 846 24.98 -3.4 26 70 -8 17.6
20:05 1017 30.03 846 24.98 -3.4 25.9 73 -7.5 18.6
20:10 1017 30.03 846 24.98 -3.8 25.1 75 -7.6 18.2
20:15 1017 30.03 846 24.98 -4 24.8 74 -7.9 17.8
20:20 1017 30.03 846 24.98 -3.9 25 72 -8.2 17.3
20:25 1017 30.03 846 24.98 -3.7 25.3 72 -8.1 17.5
20:30 1017 30.03 846 24.98 -3.5 25.7 70 -8.2 17.3
20:35 1017 30.03 846 24.98 -3.3 26.1 70 -8 17.5
20:40 1017 30.03 846 24.98 -3.3 26.1 67 -8.5 16.6
20:45 1017 30.03 846 24.98 -3.5 25.7 69 -8.3 17
20:50 1017 30.03 846 24.98 -3.6 25.5 72 -7.9 17.7
20:55 1017 30.03 846 24.98 -3.5 25.7 69 -8.5 16.7
21:00 1017 30.03 846 24.98 -3.2 26.2 66 -8.8 16.2
21:05 1017 30.03 846 24.98 -3.1 26.5 68 -8.2 17.2
21:10 1017 30.03 846 24.98 -3 26.6 66 -8.6 16.6
21:15 1017 30.03 846 24.98 -2.9 26.7 65 -8.7 16.4
21:20 1017 30.03 846 24.98 -2.9 26.7 64 -8.9 16
21:25 1017 30.03 846 24.98 -2.9 26.8 62 -9.1 15.7
21:30 1017 30.03 846 24.98 -2.9 26.8 67 -8.2 17.2
21:35 1017 30.03 846 24.98 -3.1 26.5 73 -7.2 19.1
21:40 1017 30.03 846 24.98 -3.5 25.7 73 -7.7 18.2
21:45 1017 30.03 846 24.98 -3.4 25.9 69 -8.3 17.1
21:50 1017 30.03 846 24.98 -3.1 26.4 67 -8.4 16.8
21:55 1017 30.03 847 25.01 -3 26.7 66 -8.4 16.9
22:00 1017 30.03 847 25.01 -2.9 26.8 66 -8.5 16.7
22:05 1017 30.03 847 25.01 -2.9 26.7 70 -7.8 18
22:10 1017 30.03 847 25.01 -3.3 26.1 68 -8.3 17
22:15 1017 30.03 847 25.01 -3.4 25.9 71 -7.9 17.7
22:20 1017 30.03 847 25.01 -3.4 25.9 65 -9.1 15.5
22:25 1017 30.03 847 25.01 -3.4 25.9 65 -9.1 15.7
22:30 1017 30.03 847 25.01 -3.4 25.9 65 -9 15.8
22:35 1017 30.03 847 25.01 -3.4 25.9 65 -9 15.8
22:40 1018 30.06 847 25.01 -3.2 26.2 65 -9 15.9
22:45 1018 30.06 847 25.01 -3.1 26.4 64 -9 15.8
22:50 1018 30.06 847 25.01 -2.9 26.7 64 -8.8 16.2
22:55 1018 30.06 847 25.01 -2.9 26.9 64 -8.8 16.2
23:00 1017 30.03 847 25.01 -2.9 26.9 64 -8.8 16.1
23:05 1018 30.06 847 25.01 -2.9 26.8 63 -8.9 16
23:10 1018 30.06 847 25.01 -3 26.7 65 -8.7 16.4
23:15 1018 30.06 847 25.01 -3.1 26.5 65 -8.8 16.2
23:20 1018 30.06 847 25.01 -3.1 26.4 65 -8.7 16.3
23:25 1018 30.06 847 25.01 -3.1 26.4 67 -8.4 16.9
23:30 1018 30.06 847 25.01 -3.3 26.1 67 -8.6 16.6
23:35 1018 30.06 847 25.01 -3.2 26.2 67 -8.6 16.6
23:40 1018 30.06 847 25.01 -3.2 26.2 67 -8.5 16.6
23:45 1018 30.06 847 25.01 -3.2 26.2 68 -8.3 17.1
23:50 1018 30.06 847 25.01 -3.3 26 69 -8.2 17.2
23:55 1018 30.06 847 25.01 -3.4 25.9 69 -8.3 17.1
24:00 1018 30.06 847 25.01 -3.3 26 70 -8.1 17.5